TAF KLAN
KLAN 270540Z 2706/2806 20005KT P6SM OVC080 FM271600 16007KT P6SM -SHSN BKN035 OVC050 FM271900 16008KT 2SM -SN BR BKN018 OVC025 FM272300 12007KT 1SM -SN BR OVC008 FM280400 07006KT 3SM -SN BR OVC012=
METAR KLAN
WC KLAN
WS KLAN
WV KLAN